Terminal Aerodrome Forecast
Issued by NWS Omaha/Valley, NE

Home | Current Version | Previous Version | Text Only | Print | Product List | Glossary Off
Versions: 1 2 3 4 5 6 7 8 9 10 11 12 13 14 15 16 17 18 19 20 21 22 23 24 25 26 27 28 29 30 31 32 33 34 35 36 37 38

000
FTUS43 KOAX 261935 AAB
TAFOFK
TAF AMD
KOFK 261935Z 2620/2718 19011KT P6SM FEW150
     FM262300 14010KT P6SM SCT035 BKN150 PROB30 2710/2712 5SM -TSRA
      BKN035CB
     FM271300 15011KT P6SM BKN050 BKN250=

USA.gov is the U.S. government's official web portal to all federal, state and local government web resources and services.